Observation data for Hart on 01/17/2021      Previous  Date  Next       Current Mesonet Observations  Soil Data  Daily Summary Page  Observations in Plain Language
KHRS 170600Z 33008KT M03/M07 A3011 RMK A01 T10251068  RH  073%=      5-min Rain = 0
KHRS 170605Z 33009KT M03/M07 A3011 RMK A01 T10261067  RH  074%=      5-min Rain = 0
KHRS 170610Z 33008KT M02/M07 A3011 RMK A01 T10241065  RH  075%=      5-min Rain = 0
KHRS 170615Z 32008KT M02/M07 A3011 RMK A01 T10231065  RH  074%=      5-min Rain = 0
KHRS 170620Z 32009KT M02/M06 A3011 RMK A01 T10241064  RH  075%=      5-min Rain = 0
KHRS 170625Z 32009KT M02/M06 A3011 RMK A01 T10241063  RH  076%=      5-min Rain = 0
KHRS 170630Z 32008KT M03/M06 A3011 RMK A01 T10251063  RH  076%=      5-min Rain = 0
KHRS 170635Z 31006KT M03/M07 A3012 RMK A01 T10291066  RH  076%=      5-min Rain = 0
KHRS 170640Z 31006KT M03/M07 A3011 RMK A01 T10301065  RH  078%=      5-min Rain = 0
KHRS 170645Z 31005KT M03/M07 A3011 RMK A01 T10311065  RH  079%=      5-min Rain = 0
KHRS 170650Z 31006KT M03/M06 A3012 RMK A01 T10311063  RH  080%=      5-min Rain = 0
KHRS 170655Z 31006KT M03/M06 A3012 RMK A01 T10321063  RH  080%=      5-min Rain = 0
KHRS 170700Z 32005KT M03/M07 A3011 RMK A01 T10341065  RH  080%=      5-min Rain = 0
KHRS 170705Z 32005KT M04/M07 A3011 RMK A01 T10351066  RH  080%=      5-min Rain = 0
KHRS 170710Z 32005KT M04/M07 A3011 RMK A01 T10371066  RH  081%=      5-min Rain = 0
KHRS 170715Z 31006KT M04/M06 A3011 RMK A01 T10371064  RH  082%=      5-min Rain = 0
KHRS 170720Z 30005KT M04/M06 A3011 RMK A01 T10351060  RH  084%=      5-min Rain = 0
KHRS 170725Z 31007KT M03/M05 A3011 RMK A01 T10311054  RH  085%=      5-min Rain = 0
KHRS 170730Z 31006KT M03/M06 A3011 RMK A01 T10291055  RH  084%=      5-min Rain = 0
KHRS 170735Z 31005KT M03/M06 A3011 RMK A01 T10301056  RH  083%=      5-min Rain = 0
KHRS 170740Z 31005KT M03/M06 A3011 RMK A01 T10311056  RH  084%=      5-min Rain = 0
KHRS 170745Z 30004KT M03/M05 A3011 RMK A01 T10301054  RH  085%=      5-min Rain = 0
KHRS 170750Z 29004KT M03/M05 A3011 RMK A01 T10311054  RH  085%=      5-min Rain = 0
KHRS 170755Z 28005KT M03/M06 A3012 RMK A01 T10331058  RH  084%=      5-min Rain = 0
KHRS 170800Z 29005KT M04/M06 A3011 RMK A01 T10371060  RH  085%=      5-min Rain = 0
KHRS 170805Z 29005KT M04/M06 A3012 RMK A01 T10411063  RH  086%=      5-min Rain = 0
KHRS 170810Z 30006KT M04/M06 A3012 RMK A01 T10431063  RH  087%=      5-min Rain = 0
KHRS 170815Z 30006KT M04/M06 A3012 RMK A01 T10441062  RH  088%=      5-min Rain = 0
KHRS 170820Z 30007KT M04/M06 A3012 RMK A01 T10411058  RH  089%=      5-min Rain = 0
KHRS 170825Z 30007KT M04/M06 A3012 RMK A01 T10411057  RH  089%=      5-min Rain = 0
KHRS 170830Z 30006KT M04/M06 A3012 RMK A01 T10391055  RH  090%=      5-min Rain = 0
KHRS 170835Z 30006KT M04/M05 A3012 RMK A01 T10381054  RH  089%=      5-min Rain = 0
KHRS 170840Z 31006KT M03/M05 A3012 RMK A01 T10341050  RH  090%=      5-min Rain = 0
KHRS 170845Z 31005KT M03/M05 A3012 RMK A01 T10331050  RH  089%=      5-min Rain = 0
KHRS 170850Z 31004KT M04/M05 A3012 RMK A01 T10361054  RH  088%=      5-min Rain = 0
KHRS 170855Z 32005KT M04/M06 A3012 RMK A01 T10381055  RH  089%=      5-min Rain = 0
KHRS 170900Z 33008KT M04/M05 A3012 RMK A01 T10351051  RH  090%=      5-min Rain = 0
KHRS 170905Z 32007KT M03/M05 A3012 RMK A01 T10331050  RH  089%=      5-min Rain = 0
KHRS 170910Z 31007KT M04/M05 A3012 RMK A01 T10351053  RH  089%=      5-min Rain = 0
KHRS 170915Z 31007KT M04/M05 A3012 RMK A01 T10361053  RH  089%=      5-min Rain = 0
KHRS 170920Z 31007KT M04/M05 A3012 RMK A01 T10371053  RH  089%=      5-min Rain = 0
KHRS 170925Z 30006KT M04/M05 A3012 RMK A01 T10381054  RH  089%=      5-min Rain = 0
KHRS 170930Z 29005KT M04/M06 A3012 RMK A01 T10431060  RH  089%=      5-min Rain = 0
KHRS 170935Z 29006KT M04/M06 A3012 RMK A01 T10431058  RH  091%=      5-min Rain = 0
KHRS 170940Z 29007KT M04/M06 A3012 RMK A01 T10421056  RH  091%=      5-min Rain = 0
KHRS 170945Z 29006KT M04/M06 A3012 RMK A01 T10411056  RH  091%=      5-min Rain = 0
KHRS 170950Z 28006KT M05/M06 A3012 RMK A01 T10461061  RH  090%=      5-min Rain = 0
KHRS 170955Z 28007KT M05/M06 A3012 RMK A01 T10471061  RH  091%=      5-min Rain = 0
KHRS 171000Z 29007KT M05/M06 A3012 RMK A01 T10481061  RH  092%=      5-min Rain = 0
KHRS 171005Z 30006KT M05/M06 A3012 RMK A01 T10491062  RH  092%=      5-min Rain = 0
KHRS 171010Z 30006KT M05/M06 A3012 RMK A01 T10501062  RH  092%=      5-min Rain = 0
KHRS 171015Z 31006KT M05/M06 A3012 RMK A01 T10451056  RH  093%=      5-min Rain = 0
KHRS 171020Z 31006KT M05/M06 A3011 RMK A01 T10461058  RH  092%=      5-min Rain = 0
KHRS 171025Z 31006KT M05/M06 A3011 RMK A01 T10471059  RH  092%=      5-min Rain = 0
KHRS 171030Z 32008KT M05/M06 A3012 RMK A01 T10471059  RH  092%=      5-min Rain = 0
KHRS 171035Z 32009KT M05/M06 A3012 RMK A01 T10461058  RH  092%=      5-min Rain = 0
KHRS 171040Z 32009KT M05/M06 A3012 RMK A01 T10461059  RH  092%=      5-min Rain = 0
KHRS 171045Z 33010KT M05/M06 A3012 RMK A01 T10451058  RH  092%=      5-min Rain = 0
KHRS 171050Z 33010KT M04/M06 A3012 RMK A01 T10441058  RH  091%=      5-min Rain = 0
KHRS 171055Z 33010KT M04/M06 A3012 RMK A01 T10441059  RH  090%=      5-min Rain = 0
KHRS 171100Z 33009KT M04/M06 A3012 RMK A01 T10431059  RH  090%=      5-min Rain = 0
KHRS 171105Z 33009KT M04/M06 A3012 RMK A01 T10431059  RH  089%=      5-min Rain = 0
KHRS 171110Z 33008KT M04/M06 A3011 RMK A01 T10431060  RH  089%=      5-min Rain = 0
KHRS 171115Z 33008KT M04/M06 A3011 RMK A01 T10431061  RH  088%=      5-min Rain = 0
KHRS 171120Z 33007KT M04/M06 A3011 RMK A01 T10431062  RH  088%=      5-min Rain = 0
KHRS 171125Z 33007KT M05/M07 A3011 RMK A01 T10471066  RH  087%=      5-min Rain = 0
KHRS 171130Z 33008KT M05/M07 A3011 RMK A01 T10491067  RH  088%=      5-min Rain = 0
KHRS 171135Z 33008KT M05/M07 A3011 RMK A01 T10501067  RH  088%=      5-min Rain = 0
KHRS 171140Z 33007KT M05/M07 A3011 RMK A01 T10501068  RH  088%=      5-min Rain = 0
KHRS 171145Z 33007KT M05/M07 A3011 RMK A01 T10521069  RH  089%=      5-min Rain = 0
KHRS 171150Z 33008KT M05/M07 A3012 RMK A01 T10521069  RH  089%=      5-min Rain = 0
KHRS 171155Z 33007KT M05/M07 A3012 RMK A01 T10531070  RH  089%=      5-min Rain = 0
KHRS 171200Z 33007KT M05/M07 A3012 RMK A01 T10531069  RH  089%=      5-min Rain = 0
KHRS 171205Z 34009KT M05/M07 A3012 RMK A01 T10501067  RH  089%=      5-min Rain = 0
KHRS 171210Z 34009KT M05/M07 A3012 RMK A01 T10471066  RH  088%=      5-min Rain = 0
KHRS 171215Z 34009KT M05/M07 A3012 RMK A01 T10451065  RH  087%=      5-min Rain = 0
KHRS 171220Z 34009KT M04/M07 A3012 RMK A01 T10441066  RH  086%=      5-min Rain = 0
KHRS 171225Z 34009KT M05/M07 A3013 RMK A01 T10451067  RH  085%=      5-min Rain = 0
KHRS 171230Z 34010KT M04/M07 A3013 RMK A01 T10441067  RH  085%=      5-min Rain = 0
KHRS 171235Z 33009KT M04/M07 A3013 RMK A01 T10441067  RH  085%=      5-min Rain = 0
KHRS 171240Z 33008KT M05/M07 A3014 RMK A01 T10451069  RH  085%=      5-min Rain = 0
KHRS 171245Z 33008KT M05/M07 A3014 RMK A01 T10481070  RH  085%=      5-min Rain = 0
KHRS 171250Z 33008KT M05/M07 A3014 RMK A01 T10491071  RH  086%=      5-min Rain = 0
KHRS 171255Z 33007KT M05/M07 A3014 RMK A01 T10501071  RH  086%=      5-min Rain = 0
KHRS 171300Z 34006KT M05/M07 A3014 RMK A01 T10511072  RH  086%=      5-min Rain = 0
KHRS 171305Z 35004KT M05/M07 A3014 RMK A01 T10511072  RH  086%=      5-min Rain = 0
KHRS 171310Z 34005KT M05/M07 A3014 RMK A01 T10511073  RH  086%=      5-min Rain = 0
KHRS 171315Z 34005KT M05/M07 A3014 RMK A01 T10521074  RH  086%=      5-min Rain = 0
KHRS 171320Z 34005KT M05/M08 A3015 RMK A01 T10531075  RH  086%=      5-min Rain = 0
KHRS 171325Z 34005KT M05/M08 A3015 RMK A01 T10541076  RH  086%=      5-min Rain = 0
KHRS 171330Z 34005KT M06/M08 A3015 RMK A01 T10551076  RH  086%=      5-min Rain = 0
KHRS 171335Z 34006KT M06/M08 A3015 RMK A01 T10561076  RH  087%=      5-min Rain = 0
KHRS 171340Z 34006KT M06/M08 A3016 RMK A01 T10561076  RH  087%=      5-min Rain = 0
KHRS 171345Z 34007KT M06/M08 A3016 RMK A01 T10571078  RH  087%=      5-min Rain = 0
KHRS 171350Z 34007KT M06/M08 A3016 RMK A01 T10581077  RH  087%=      5-min Rain = 0
KHRS 171355Z 34005KT M06/M08 A3016 RMK A01 T10571076  RH  087%=      5-min Rain = 0
KHRS 171400Z 34006KT M06/M08 A3016 RMK A01 T10551075  RH  087%=      5-min Rain = 0
KHRS 171405Z 34006KT M06/M08 A3016 RMK A01 T10551075  RH  087%=      5-min Rain = 0
KHRS 171410Z 35007KT M05/M07 A3016 RMK A01 T10531073  RH  087%=      5-min Rain = 0
KHRS 171415Z 00007KT M05/M07 A3016 RMK A01 T10471067  RH  087%=      5-min Rain = 0
KHRS 171420Z 00007KT M04/M07 A3015 RMK A01 T10441068  RH  084%=      5-min Rain = 0
KHRS 171425Z 36007KT M04/M07 A3016 RMK A01 T10431067  RH  084%=      5-min Rain = 0
KHRS 171430Z 00007KT M04/M07 A3016 RMK A01 T10411066  RH  084%=      5-min Rain = 0
KHRS 171435Z 00007KT M04/M06 A3016 RMK A01 T10361062  RH  083%=      5-min Rain = 0
KHRS 171440Z 36007KT M03/M06 A3016 RMK A01 T10331060  RH  082%=      5-min Rain = 0
KHRS 171445Z 35007KT M03/M06 A3016 RMK A01 T10301059  RH  081%=      5-min Rain = 0
KHRS 171450Z 35008KT M03/M06 A3016 RMK A01 T10271058  RH  080%=      5-min Rain = 0
KHRS 171455Z 35007KT M03/M06 A3016 RMK A01 T10251057  RH  079%=      5-min Rain = 0
KHRS 171500Z 35006KT M02/M06 A3016 RMK A01 T10221056  RH  078%=      5-min Rain = 0
KHRS 171505Z 34007KT M02/M06 A3017 RMK A01 T10191055  RH  078%=      5-min Rain = 0
KHRS 171510Z 34007KT M02/M05 A3017 RMK A01 T10181054  RH  077%=      5-min Rain = 0
KHRS 171515Z 34007KT M02/M05 A3017 RMK A01 T10151050  RH  078%=      5-min Rain = 0
KHRS 171520Z 35007KT M01/M05 A3017 RMK A01 T10091048  RH  076%=      5-min Rain = 0
KHRS 171525Z 36007KT M00/M05 A3017 RMK A01 T10031046  RH  073%=      5-min Rain = 0
KHRS 171530Z 01008KT 00/M04 A3017 RMK A01 T00031044  RH  071%=      5-min Rain = 0
KHRS 171535Z 01008KT 01/M04 A3018 RMK A01 T00091041  RH  070%=      5-min Rain = 0
KHRS 171540Z 02008KT 02/M04 A3018 RMK A01 T00151042  RH  067%=      5-min Rain = 0
KHRS 171545Z 02009KT 02/M04 A3018 RMK A01 T00191044  RH  064%=      5-min Rain = 0
KHRS 171550Z 02009KT 02/M05 A3018 RMK A01 T00221045  RH  062%=      5-min Rain = 0
KHRS 171555Z 02010KT 03/M05 A3018 RMK A01 T00251045  RH  061%=      5-min Rain = 0
KHRS 171600Z 02010KT 03/M05 A3018 RMK A01 T00271045  RH  060%=      5-min Rain = 0
KHRS 171605Z 03011KT 03/M04 A3019 RMK A01 T00291043  RH  060%=      5-min Rain = 0
KHRS 171610Z 03011KT 03/M04 A3019 RMK A01 T00321044  RH  058%=      5-min Rain = 0
KHRS 171615Z 03012KT 03/M04 A3019 RMK A01 T00341043  RH  058%=      5-min Rain = 0
KHRS 171620Z 03012KT 04/M04 A3019 RMK A01 T00351044  RH  057%=      5-min Rain = 0
KHRS 171625Z 03013KT 04/M05 A3019 RMK A01 T00381045  RH  055%=      5-min Rain = 0
KHRS 171630Z 03012KT 04/M05 A302 RMK A01 T00391045  RH  055%=      5-min Rain = 0
KHRS 171635Z 03011KT 04/M04 A302 RMK A01 T00421043  RH  055%=      5-min Rain = 0
KHRS 171640Z 03012KT 05/M04 A302 RMK A01 T00461044  RH  053%=      5-min Rain = 0
KHRS 171645Z 03011KT 05/M04 A302 RMK A01 T00481044  RH  052%=      5-min Rain = 0
KHRS 171650Z 03011KT 05/M05 A302 RMK A01 T00511045  RH  050%=      5-min Rain = 0
KHRS 171655Z 03011KT 05/M05 A302 RMK A01 T00521048  RH  049%=      5-min Rain = 0
KHRS 171700Z 04011KT 05/M05 A302 RMK A01 T00531050  RH  048%=      5-min Rain = 0
KHRS 171705Z 03011KT 05/M05 A302 RMK A01 T00541049  RH  048%=      5-min Rain = 0
KHRS 171710Z 03011KT 06/M05 A302 RMK A01 T00551050  RH  047%=      5-min Rain = 0
KHRS 171715Z 04010KT 06/M05 A302 RMK A01 T00561049  RH  047%=      5-min Rain = 0
KHRS 171720Z 04011KT 06/M05 A302 RMK A01 T00611051  RH  045%=      5-min Rain = 0
KHRS 171725Z 04012KT 06/M06 A302 RMK A01 T00601055  RH  044%=      5-min Rain = 0
KHRS 171730Z 04010KT 06/M05 A302 RMK A01 T00601053  RH  044%=      5-min Rain = 0
KHRS 171735Z 04009KT 06/M05 A302 RMK A01 T00621053  RH  044%=      5-min Rain = 0
KHRS 171740Z 04008G13KT 06/M06 A3019 RMK A01 T00621055  RH  043%=      5-min Rain = 0
KHRS 171745Z 05009KT 07/M06 A3019 RMK A01 T00651055  RH  043%=      5-min Rain = 0
KHRS 171750Z 03008KT 07/M06 A3019 RMK A01 T00661056  RH  042%=      5-min Rain = 0
KHRS 171755Z 04007G13KT 07/M05 A3018 RMK A01 T00681054  RH  042%=      5-min Rain = 0
KHRS 171800Z 04007KT 07/M06 A3018 RMK A01 T00691060  RH  040%=      5-min Rain = 0
KHRS 171805Z 04006KT 07/M06 A3017 RMK A01 T00691059  RH  040%=      5-min Rain = 0
KHRS 171810Z 04006KT 07/M06 A3017 RMK A01 T00721060  RH  039%=      5-min Rain = 0
KHRS 171815Z 02005KT 07/M06 A3016 RMK A01 T00701063  RH  039%=      5-min Rain = 0
KHRS 171820Z 04005KT 07/M06 A3016 RMK A01 T00711062  RH  039%=      5-min Rain = 0
KHRS 171825Z 06005KT 08/M06 A3016 RMK A01 T00751060  RH  038%=      5-min Rain = 0
KHRS 171830Z 03004KT 08/M06 A3015 RMK A01 T00761062  RH  037%=      5-min Rain = 0
KHRS 171835Z 08004KT 08/M06 A3014 RMK A01 T00761063  RH  037%=      5-min Rain = 0
KHRS 171840Z 11003KT 08/M07 A3014 RMK A01 T00781066  RH  036%=      5-min Rain = 0
KHRS 171845Z 10003KT 08/M06 A3013 RMK A01 T00771064  RH  036%=      5-min Rain = 0
KHRS 171850Z 11002KT 08/M07 A3013 RMK A01 T00771065  RH  036%=      5-min Rain = 0
KHRS 171855Z 10003KT 08/M06 A3013 RMK A01 T00791064  RH  036%=      5-min Rain = 0
KHRS 171900Z 11001KT 08/M06 A3012 RMK A01 T00781064  RH  036%=      5-min Rain = 0
KHRS 171905Z 03002KT 08/M06 A3012 RMK A01 T00781064  RH  036%=      5-min Rain = 0
KHRS 171910Z 14002KT 08/M07 A3012 RMK A01 T00821065  RH  035%=      5-min Rain = 0
KHRS 171915Z 14003KT 08/M07 A3011 RMK A01 T00841066  RH  034%=      5-min Rain = 0
KHRS 171920Z 09001KT 08/M07 A3011 RMK A01 T00841066  RH  034%=      5-min Rain = 0
KHRS 171925Z 17003KT 09/M07 A3011 RMK A01 T00851065  RH  034%=      5-min Rain = 0
KHRS 171930Z 18003KT 09/M07 A3011 RMK A01 T00871066  RH  034%=      5-min Rain = 0
KHRS 171935Z 32001KT 08/M07 A3011 RMK A01 T00841067  RH  034%=      5-min Rain = 0
KHRS 171940Z 35002KT 09/M06 A3011 RMK A01 T00861064  RH  034%=      5-min Rain = 0
KHRS 171945Z 03004KT 09/M07 A3011 RMK A01 T00851065  RH  034%=      5-min Rain = 0
KHRS 171950Z 04003KT 08/M07 A3011 RMK A01 T00831065  RH  035%=      5-min Rain = 0
KHRS 171955Z 02002KT 08/M07 A3011 RMK A01 T00821065  RH  035%=      5-min Rain = 0
KHRS 172000Z 05002KT 09/M06 A3011 RMK A01 T00861064  RH  035%=      5-min Rain = 0
KHRS 172005Z 05003KT 09/M06 A3011 RMK A01 T00881064  RH  034%=      5-min Rain = 0
KHRS 172010Z 09004KT 09/M06 A3011 RMK A01 T00881064  RH  034%=      5-min Rain = 0
KHRS 172015Z 12004KT 09/M07 A3011 RMK A01 T00891065  RH  033%=      5-min Rain = 0
KHRS 172020Z 14002KT 09/M07 A3011 RMK A01 T00911065  RH  033%=      5-min Rain = 0
KHRS 172025Z 21002KT 09/M07 A3011 RMK A01 T00921065  RH  033%=      5-min Rain = 0
KHRS 172030Z 21003KT 09/M06 A3011 RMK A01 T00911064  RH  033%=      5-min Rain = 0
KHRS 172035Z 08004KT 09/M07 A3011 RMK A01 T00911065  RH  033%=      5-min Rain = 0
KHRS 172040Z 13002KT 09/M06 A3011 RMK A01 T00891064  RH  034%=      5-min Rain = 0
KHRS 172045Z 10003KT 09/M07 A301 RMK A01 T00911065  RH  033%=      5-min Rain = 0
KHRS 172050Z 04003KT 09/M07 A301 RMK A01 T00891066  RH  033%=      5-min Rain = 0
KHRS 172055Z 35003KT 09/M07 A301 RMK A01 T00871066  RH  034%=      5-min Rain = 0
KHRS 172100Z 02001KT 09/M06 A301 RMK A01 T00891063  RH  034%=      5-min Rain = 0
KHRS 172105Z 14004KT 09/M06 A3009 RMK A01 T00941064  RH  033%=      5-min Rain = 0
KHRS 172110Z 13001KT 10/M06 A3009 RMK A01 T00951064  RH  032%=      5-min Rain = 0
KHRS 172115Z 17004KT 10/M06 A3009 RMK A01 T00971063  RH  032%=      5-min Rain = 0
KHRS 172120Z 18004KT 10/M07 A301 RMK A01 T00961065  RH  032%=      5-min Rain = 0
KHRS 172125Z 18003KT 09/M07 A301 RMK A01 T00941065  RH  032%=      5-min Rain = 0
KHRS 172130Z 23002KT 10/M07 A301 RMK A01 T00951065  RH  032%=      5-min Rain = 0
KHRS 172135Z 20004KT 10/M06 A301 RMK A01 T00951064  RH  032%=      5-min Rain = 0
KHRS 172140Z 19004KT 09/M07 A301 RMK A01 T00931065  RH  032%=      5-min Rain = 0
KHRS 172145Z 18003KT 10/M07 A3009 RMK A01 T00951065  RH  032%=      5-min Rain = 0
KHRS 172150Z 10002KT 10/M07 A3009 RMK A01 T00951066  RH  032%=      5-min Rain = 0
KHRS 172155Z 17005KT 09/M06 A3009 RMK A01 T00941064  RH  032%=      5-min Rain = 0
KHRS 172200Z 21004KT 10/M06 A3009 RMK A01 T00961064  RH  032%=      5-min Rain = 0
KHRS 172205Z 23004KT 09/M06 A3008 RMK A01 T00941064  RH  032%=      5-min Rain = 0
KHRS 172210Z 19004KT 09/M07 A3008 RMK A01 T00941065  RH  032%=      5-min Rain = 0
KHRS 172215Z 18001KT 10/M06 A3008 RMK A01 T00951064  RH  032%=      5-min Rain = 0
KHRS 172220Z 18002KT 10/M06 A3008 RMK A01 T00991064  RH  032%=      5-min Rain = 0
KHRS 172225Z 18004KT 10/M06 A3008 RMK A01 T00981063  RH  032%=      5-min Rain = 0
KHRS 172230Z 16004KT 10/M06 A3008 RMK A01 T00951064  RH  032%=      5-min Rain = 0
KHRS 172235Z 16005KT 09/M06 A3007 RMK A01 T00941063  RH  033%=      5-min Rain = 0
KHRS 172240Z 19005KT 09/M06 A3007 RMK A01 T00941064  RH  033%=      5-min Rain = 0
KHRS 172245Z 22006KT 09/M06 A3007 RMK A01 T00921064  RH  033%=      5-min Rain = 0
KHRS 172250Z 21005KT 09/M06 A3007 RMK A01 T00901064  RH  033%=      5-min Rain = 0
KHRS 172255Z 21004KT 09/M06 A3007 RMK A01 T00901064  RH  033%=      5-min Rain = 0
KHRS 172300Z 19006KT 09/M06 A3007 RMK A01 T00901062  RH  034%=      5-min Rain = 0
KHRS 172305Z 19006KT 09/M06 A3007 RMK A01 T00871062  RH  035%=      5-min Rain = 0
KHRS 172310Z 18005KT 09/M06 A3007 RMK A01 T00881061  RH  035%=      5-min Rain = 0
KHRS 172315Z 17005KT 09/M06 A3007 RMK A01 T00881062  RH  034%=      5-min Rain = 0
KHRS 172320Z 18005KT 09/M06 A3006 RMK A01 T00871062  RH  035%=      5-min Rain = 0
KHRS 172325Z 17005KT 09/M06 A3006 RMK A01 T00861061  RH  035%=      5-min Rain = 0
KHRS 172330Z 20006KT 08/M06 A3006 RMK A01 T00831058  RH  037%=      5-min Rain = 0
KHRS 172335Z 19007KT 08/M06 A3006 RMK A01 T00791059  RH  037%=      5-min Rain = 0
KHRS 172340Z 19006KT 08/M06 A3006 RMK A01 T00761057  RH  039%=      5-min Rain = 0
KHRS 172345Z 18005KT 08/M06 A3006 RMK A01 T00751058  RH  039%=      5-min Rain = 0
KHRS 172350Z 18005KT 07/M06 A3006 RMK A01 T00731057  RH  040%=      5-min Rain = 0
KHRS 172355Z 18005KT 07/M06 A3006 RMK A01 T00701056  RH  041%=      5-min Rain = 0
KHRS 180000Z 18005KT 06/M06 A3006 RMK A01 T00631055  RH  043%=      5-min Rain = 0
KHRS 180005Z 18005KT 06/M06 A3006 RMK A01 T00601055  RH  044%=      5-min Rain = 0
KHRS 180010Z 18005KT 06/M05 A3006 RMK A01 T00571054  RH  045%=      5-min Rain = 0
KHRS 180015Z 18005KT 05/M06 A3006 RMK A01 T00541055  RH  046%=      5-min Rain = 0
KHRS 180020Z 18004KT 05/M06 A3006 RMK A01 T00511055  RH  047%=      5-min Rain = 0
KHRS 180025Z 18004KT 05/M05 A3006 RMK A01 T00521054  RH  047%=      5-min Rain = 0
KHRS 180030Z 17003KT 05/M06 A3006 RMK A01 T00501057  RH  047%=      5-min Rain = 0
KHRS 180035Z 18005KT 05/M06 A3006 RMK A01 T00471058  RH  047%=      5-min Rain = 0
KHRS 180040Z 18005KT 05/M06 A3006 RMK A01 T00461058  RH  047%=      5-min Rain = 0
KHRS 180045Z 17004KT 05/M06 A3006 RMK A01 T00451059  RH  047%=      5-min Rain = 0
KHRS 180050Z 17004KT 04/M06 A3006 RMK A01 T00411060  RH  048%=      5-min Rain = 0
KHRS 180055Z 17005KT 04/M06 A3006 RMK A01 T00391060  RH  049%=      5-min Rain = 0
KHRS 180100Z 17005KT 04/M06 A3006 RMK A01 T00381061  RH  049%=      5-min Rain = 0
KHRS 180105Z 17005KT 04/M06 A3006 RMK A01 T00371061  RH  049%=      5-min Rain = 0
KHRS 180110Z 17005KT 04/M06 A3006 RMK A01 T00351062  RH  050%=      5-min Rain = 0
KHRS 180115Z 17005KT 03/M06 A3006 RMK A01 T00311062  RH  051%=      5-min Rain = 0
KHRS 180120Z 18007KT 03/M06 A3006 RMK A01 T00301061  RH  052%=      5-min Rain = 0
KHRS 180125Z 17006KT 03/M06 A3006 RMK A01 T00301061  RH  052%=      5-min Rain = 0
KHRS 180130Z 17006KT 03/M06 A3006 RMK A01 T00271062  RH  052%=      5-min Rain = 0
KHRS 180135Z 17006KT 03/M06 A3005 RMK A01 T00251061  RH  054%=      5-min Rain = 0
KHRS 180140Z 17006KT 03/M06 A3005 RMK A01 T00251060  RH  054%=      5-min Rain = 0
KHRS 180145Z 17007KT 02/M06 A3005 RMK A01 T00231060  RH  055%=      5-min Rain = 0
KHRS 180150Z 18007KT 02/M06 A3005 RMK A01 T00211058  RH  057%=      5-min Rain = 0
KHRS 180155Z 19008KT 03/M05 A3005 RMK A01 T00251052  RH  058%=      5-min Rain = 0
KHRS 180200Z 19009KT 03/M05 A3005 RMK A01 T00341050  RH  054%=      5-min Rain = 0
KHRS 180205Z 19010KT 03/M05 A3005 RMK A01 T00331051  RH  055%=      5-min Rain = 0
KHRS 180210Z 19010KT 03/M05 A3005 RMK A01 T00271052  RH  056%=      5-min Rain = 0
KHRS 180215Z 19010KT 03/M05 A3005 RMK A01 T00251052  RH  057%=      5-min Rain = 0
KHRS 180220Z 19009KT 03/M05 A3005 RMK A01 T00251052  RH  058%=      5-min Rain = 0
KHRS 180225Z 19008KT 02/M05 A3004 RMK A01 T00241051  RH  059%=      5-min Rain = 0
KHRS 180230Z 19008KT 02/M05 A3004 RMK A01 T00211050  RH  060%=      5-min Rain = 0
KHRS 180235Z 18009KT 02/M05 A3004 RMK A01 T00231048  RH  060%=      5-min Rain = 0
KHRS 180240Z 18009KT 03/M05 A3004 RMK A01 T00281048  RH  058%=      5-min Rain = 0
KHRS 180245Z 18007KT 03/M05 A3004 RMK A01 T00281049  RH  058%=      5-min Rain = 0
KHRS 180250Z 18007KT 03/M05 A3004 RMK A01 T00261049  RH  059%=      5-min Rain = 0
KHRS 180255Z 18007KT 03/M05 A3004 RMK A01 T00251049  RH  059%=      5-min Rain = 0
KHRS 180300Z 17005KT 02/M05 A3004 RMK A01 T00211051  RH  060%=      5-min Rain = 0
KHRS 180305Z 17006KT 02/M05 A3004 RMK A01 T00171050  RH  062%=      5-min Rain = 0
KHRS 180310Z 18006KT 02/M05 A3003 RMK A01 T00161050  RH  062%=      5-min Rain = 0
KHRS 180315Z 18007KT 01/M05 A3003 RMK A01 T00131049  RH  064%=      5-min Rain = 0
KHRS 180320Z 18005KT 01/M05 A3003 RMK A01 T00141049  RH  064%=      5-min Rain = 0
KHRS 180325Z 18006KT 01/M05 A3003 RMK A01 T00121050  RH  064%=      5-min Rain = 0
KHRS 180330Z 18005KT 01/M05 A3002 RMK A01 T00101052  RH  064%=      5-min Rain = 0
KHRS 180335Z 18006KT 01/M05 A3002 RMK A01 T00061052  RH  066%=      5-min Rain = 0
KHRS 180340Z 18007KT 01/M05 A3002 RMK A01 T00091046  RH  068%=      5-min Rain = 0
KHRS 180345Z 18008KT 02/M04 A3002 RMK A01 T00171042  RH  065%=      5-min Rain = 0
KHRS 180350Z 18007KT 02/M04 A3002 RMK A01 T00201042  RH  064%=      5-min Rain = 0
KHRS 180355Z 18006KT 02/M04 A3001 RMK A01 T00191043  RH  064%=      5-min Rain = 0
KHRS 180400Z 18007KT 02/M04 A3001 RMK A01 T00181042  RH  065%=      5-min Rain = 0
KHRS 180405Z 18007KT 02/M04 A3001 RMK A01 T00161043  RH  066%=      5-min Rain = 0
KHRS 180410Z 18007KT 01/M04 A30 RMK A01 T00141043  RH  067%=      5-min Rain = 0
KHRS 180415Z 18007KT 02/M04 A30 RMK A01 T00151042  RH  067%=      5-min Rain = 0
KHRS 180420Z 19009KT 02/M04 A30 RMK A01 T00151042  RH  066%=      5-min Rain = 0
KHRS 180425Z 19009KT 01/M04 A30 RMK A01 T00141042  RH  067%=      5-min Rain = 0
KHRS 180430Z 18009KT 01/M04 A30 RMK A01 T00131043  RH  067%=      5-min Rain = 0
KHRS 180435Z 18009KT 01/M04 A2999 RMK A01 T00111043  RH  068%=      5-min Rain = 0
KHRS 180440Z 19010KT 01/M04 A2999 RMK A01 T00131042  RH  068%=      5-min Rain = 0
KHRS 180445Z 19011KT 01/M04 A2999 RMK A01 T00141043  RH  066%=      5-min Rain = 0
KHRS 180450Z 18010KT 01/M05 A2998 RMK A01 T00101045  RH  067%=      5-min Rain = 0
KHRS 180455Z 19011KT 01/M05 A2998 RMK A01 T00081045  RH  069%=      5-min Rain = 0
KHRS 180500Z 19011KT 01/M04 A2998 RMK A01 T00071044  RH  069%=      5-min Rain = 0
KHRS 180505Z 19011KT 01/M05 A2998 RMK A01 T00081045  RH  068%=      5-min Rain = 0
KHRS 180510Z 19010KT 01/M05 A2998 RMK A01 T00071046  RH  068%=      5-min Rain = 0
KHRS 180515Z 19011KT 00/M05 A2998 RMK A01 T00021047  RH  070%=      5-min Rain = 0
KHRS 180520Z 19011KT 00/05 A2998 RMK A01 T00-00-46  RH  072%=      5-min Rain = 0
KHRS 180525Z 19011KT 00/M05 A2998 RMK A01 T00011045  RH  072%=      5-min Rain = 0
KHRS 180530Z 19010KT 00/M04 A2998 RMK A01 T00021044  RH  072%=      5-min Rain = 0
KHRS 180535Z 19009KT 00/M05 A2998 RMK A01 T00011045  RH  072%=      5-min Rain = 0
KHRS 180540Z 20009KT M00/M05 A2997 RMK A01 T10021046  RH  073%=      5-min Rain = 0
KHRS 180545Z 20009KT M01/M05 A2997 RMK A01 T10061047  RH  074%=      5-min Rain = 0
KHRS 180550Z 20009KT M01/M05 A2997 RMK A01 T10071046  RH  076%=      5-min Rain = 0
KHRS 180555Z 20010KT M01/M05 A2997 RMK A01 T10051045  RH  075%=      5-min Rain = 0

Page generated in 0.0482 seconds.